Impacts TAF Board INFO
FOR SITUATIONAL AWARENESS. NOT TO BE USED FOR FLIGHT PLANNING PURPOSES.
IDs:

KSFO - San Francisco Intl, CA, US

Issued at 1740 UTC 22 Jan 2018
Updated at 1810 UTC 22 Jan 2018
Potential Impact None Slight Moderate High
Time1756Z 22/19Z 22/20Z 22/21Z 22/22Z 22/23Z 23/00Z 23/01Z 23/02Z 23/03Z 23/04Z 23/05Z 23/06Z 23/07Z>>
Type OBS PRVL PRVL PRVL PRVL PRVL PRVL PRVL PRVL PRVL PRVL PRVL PRVL PRVL
VIS 10 >6 >6 >6 >6 >6 >6 >6 >6 >6 >6 >6 >6 >6
CIG 47 40 40 -- -- -- -- -- -- -- -- -- -- --
Cover OVC BKN BKN SCT SCT SCT SCT SCT SCT SCT SCT SCT SCT SCT
FltCat VFR VFR VFR VFR VFR VFR VFR VFR VFR VFR VFR VFR VFR VFR
WX -- -- -- -- -- -- -- -- -- -- -- -- -- --
WDir 280 270 270 280 280 280 280 280 280 270 270 270 270 270
WSpd 11 7 7 9 9 9 9 9 9 8 8 8 8 8
WGst -- -- -- -- -- -- -- -- -- -- -- -- -- --

Raw TAF
KSFO 221740Z 2218/2324 27007KT P6SM FEW010 BKN040 BKN060
  FM222100 28009KT P6SM SCT030 SCT050
  FM230300 27008KT P6SM SCT030 SCT050
  FM230800 05004KT P6SM BKN012
  FM231800 08003KT P6SM BKN012
  FM232100 VRB05KT P6SM SCT015


Raw METAR
KSFO 221756Z 28011KT 10SM FEW039 OVC047 13/09 A3032 RMK AO2 CIG 037 RWY L10 SLP267 60020 T01330094 10133 20111 53014
KSFO 221656Z 27007KT 8SM FEW010 BKN040 BKN060 12/10 A3031 RMK AO2 RAE08 SLP263 P0002 T01220100
KSFO 221635Z 27009KT 8SM FEW009 BKN028 BKN060 12/10 A3030 RMK AO2 RAE08 P0002 T01220100
KSFO 221614Z 28011KT 5SM BR FEW004 BKN008 OVC013 12/11 A3030 RMK AO2 RAE08 P0002 T01220106
KSFO 221604Z 29014KT 3SM R28R/5000VP6000FT -RA BR FEW002 BKN009 OVC015 13/11 A3030 RMK AO2 P0002 T01280111
KSFO 221559Z 28010KT 3SM R28R/4000VP6000FT RA BR SCT007 OVC014 13/12 A3029 RMK AO2 VIS 1 1/2 P0001 T01330117
KSFO 221556Z 29007KT 1 1/2SM R28R/4000VP6000FT RA BR FEW002 SCT007 OVC013 13/12 A3029 RMK AO2 SLP256 P0008 T01330117

METAR Board
Radar Display
Forecast Discussion

FOR SITUATIONAL AWARENESS. NOT TO BE USED FOR FLIGHT PLANNING PURPOSES.